createdAt,value
2022-08-01T00:00:17.331Z,22.03
2022-08-01T00:01:17.330Z,22.03
2022-08-01T00:02:17.363Z,22.02
2022-08-01T00:03:17.324Z,22.00
2022-08-01T00:04:17.290Z,21.99
2022-08-01T00:05:17.282Z,21.99
2022-08-01T00:06:17.261Z,21.98
2022-08-01T00:07:17.252Z,21.96
2022-08-01T00:08:17.251Z,21.94
2022-08-01T00:09:23.818Z,21.94
2022-08-01T00:10:18.222Z,21.92
2022-08-01T00:11:17.213Z,21.91
2022-08-01T00:12:17.196Z,21.90
2022-08-01T00:13:17.203Z,21.90
2022-08-01T00:14:17.176Z,21.86
2022-08-01T00:15:17.174Z,21.86
2022-08-01T00:16:17.154Z,21.83
2022-08-01T00:17:17.155Z,21.83
2022-08-01T00:18:17.135Z,21.82
2022-08-01T00:19:17.123Z,21.80
2022-08-01T00:20:17.113Z,21.79
2022-08-01T00:21:17.097Z,21.75
2022-08-01T00:22:17.087Z,21.77
2022-08-01T00:23:17.100Z,21.77
2022-08-01T00:24:17.059Z,21.75
2022-08-01T00:25:17.056Z,21.74
2022-08-01T00:26:17.048Z,21.72
2022-08-01T00:27:17.027Z,21.72
2022-08-01T00:28:17.032Z,21.72
2022-08-01T00:30:01.119Z,21.71
2022-08-01T00:30:18.007Z,21.72
2022-08-01T00:31:16.989Z,21.69
2022-08-01T00:32:16.991Z,21.69
2022-08-01T00:33:16.968Z,21.69
2022-08-01T00:34:16.949Z,21.68
2022-08-01T00:35:16.942Z,21.68
2022-08-01T00:36:16.948Z,21.68
2022-08-01T00:37:16.934Z,21.68
2022-08-01T00:38:16.911Z,21.68
2022-08-01T00:39:16.890Z,21.68
2022-08-01T00:40:16.893Z,21.68
2022-08-01T00:41:16.880Z,21.68
2022-08-01T00:42:16.871Z,21.67
2022-08-01T00:43:16.872Z,21.68
2022-08-01T00:44:16.908Z,21.67
2022-08-01T00:45:16.824Z,21.68
2022-08-01T00:46:16.815Z,21.67
2022-08-01T00:47:16.804Z,21.68
2022-08-01T00:48:16.896Z,21.68
2022-08-01T00:49:16.829Z,21.68
2022-08-01T00:50:16.778Z,21.68
2022-08-01T00:51:16.757Z,21.68
2022-08-01T00:52:16.755Z,21.68
2022-08-01T00:53:18.756Z,21.67
2022-08-01T00:54:17.107Z,21.68
2022-08-01T00:55:16.717Z,21.69
2022-08-01T00:56:16.707Z,21.69
2022-08-01T00:57:16.702Z,21.68
2022-08-01T00:58:17.937Z,21.69
2022-08-01T00:59:16.677Z,21.69
2022-08-01T01:00:16.670Z,21.68
2022-08-01T01:01:16.674Z,21.68
2022-08-01T01:02:16.658Z,21.68
2022-08-01T01:03:16.640Z,21.69
2022-08-01T01:04:16.620Z,21.69
2022-08-01T01:05:16.620Z,21.69
2022-08-01T01:06:16.604Z,21.69
2022-08-01T01:07:16.582Z,21.69
2022-08-01T01:08:16.630Z,21.68
2022-08-01T01:09:16.571Z,21.68
2022-08-01T01:10:16.576Z,21.69
2022-08-01T01:11:16.542Z,21.69
2022-08-01T01:12:16.532Z,21.68
2022-08-01T01:13:16.534Z,21.69
2022-08-01T01:14:16.514Z,21.68
2022-08-01T01:15:16.494Z,21.69
2022-08-01T01:16:16.487Z,21.69
2022-08-01T01:17:16.475Z,21.68
2022-08-01T01:18:16.473Z,21.67
2022-08-01T01:19:16.455Z,21.68
2022-08-01T01:20:16.436Z,21.67
2022-08-01T01:21:16.426Z,21.67
2022-08-01T01:22:16.418Z,21.67
2022-08-01T01:23:16.427Z,21.67
2022-08-01T01:24:16.397Z,21.67
2022-08-01T01:25:16.378Z,21.65
2022-08-01T01:26:16.377Z,21.65
2022-08-01T01:27:16.359Z,21.64
2022-08-01T01:28:16.376Z,21.62
2022-08-01T01:29:16.339Z,21.64
2022-08-01T01:30:16.354Z,21.64
2022-08-01T01:31:16.321Z,21.62
2022-08-01T01:32:16.310Z,21.62
2022-08-01T01:33:16.300Z,21.62
2022-08-01T01:34:16.293Z,21.62
2022-08-01T01:35:16.270Z,21.61
2022-08-01T01:36:16.262Z,21.62
2022-08-01T01:37:16.251Z,21.61
2022-08-01T01:38:16.261Z,21.61
2022-08-01T01:39:16.236Z,21.61
2022-08-01T01:40:16.241Z,21.59
2022-08-01T01:41:16.213Z,21.59
2022-08-01T01:42:16.199Z,21.58
2022-08-01T01:43:16.205Z,21.58
2022-08-01T01:44:16.213Z,21.56
2022-08-01T01:45:16.156Z,21.56
2022-08-01T01:46:16.225Z,21.56
2022-08-01T01:47:16.138Z,21.53
2022-08-01T01:48:16.148Z,21.53
2022-08-01T01:49:16.170Z,21.50
2022-08-01T01:50:16.120Z,21.49
2022-08-01T01:51:16.096Z,21.47
2022-08-01T01:52:16.096Z,21.46
2022-08-01T01:53:16.089Z,21.46
2022-08-01T01:54:16.072Z,21.44
2022-08-01T01:55:16.062Z,21.43
2022-08-01T01:56:16.062Z,21.42
2022-08-01T01:57:16.021Z,21.42
2022-08-01T01:58:16.072Z,21.38
2022-08-01T01:59:16.010Z,21.38
2022-08-01T02:00:16.990Z,21.35
2022-08-01T02:01:16.009Z,21.37
2022-08-01T02:02:17.289Z,21.37
2022-08-01T02:03:15.962Z,21.34
2022-08-01T02:04:15.965Z,21.32
2022-08-01T02:05:15.939Z,21.31
2022-08-01T02:06:15.942Z,21.31
2022-08-01T02:07:15.912Z,21.29
2022-08-01T02:08:15.925Z,21.28
2022-08-01T02:09:15.894Z,21.27
2022-08-01T02:10:15.893Z,21.25
2022-08-01T02:11:15.874Z,21.24
2022-08-01T02:12:16.258Z,21.24
2022-08-01T02:13:15.873Z,21.22
2022-08-01T02:14:15.884Z,21.21
2022-08-01T02:15:15.833Z,21.21
2022-08-01T02:16:15.839Z,21.21
2022-08-01T02:17:15.807Z,21.19
2022-08-01T02:18:15.822Z,21.17
2022-08-01T02:19:15.787Z,21.17
2022-08-01T02:20:15.777Z,21.17
2022-08-01T02:21:15.773Z,21.16
2022-08-01T02:22:15.768Z,21.14
2022-08-01T02:23:15.750Z,21.14
2022-08-01T02:24:15.738Z,21.14
2022-08-01T02:25:15.722Z,21.12
2022-08-01T02:26:15.712Z,21.13
2022-08-01T02:27:15.694Z,21.10
2022-08-01T02:28:15.700Z,21.12
2022-08-01T02:29:15.671Z,21.10
2022-08-01T02:30:15.669Z,21.10
2022-08-01T02:31:15.652Z,21.10
2022-08-01T02:32:15.693Z,21.09
2022-08-01T02:33:16.164Z,21.09
2022-08-01T02:34:15.662Z,21.07
2022-08-01T02:35:15.613Z,21.07
2022-08-01T02:36:31.642Z,21.06
2022-08-01T02:37:16.590Z,21.06
2022-08-01T02:38:15.594Z,21.06
2022-08-01T02:39:15.564Z,21.04
2022-08-01T02:40:15.565Z,21.03
2022-08-01T02:41:15.545Z,21.03
2022-08-01T02:42:15.529Z,21.04
2022-08-01T02:43:15.538Z,21.03
2022-08-01T02:44:15.556Z,21.01
2022-08-01T02:45:15.497Z,21.03
2022-08-01T02:46:15.650Z,21.01
2022-08-01T02:47:15.487Z,21.01
2022-08-01T02:48:15.517Z,20.99
2022-08-01T02:49:15.535Z,20.99
2022-08-01T02:50:15.446Z,20.98
2022-08-01T02:51:15.440Z,20.97
2022-08-01T02:52:15.426Z,20.97
2022-08-01T02:53:15.431Z,20.97
2022-08-01T02:54:15.400Z,20.97
2022-08-01T02:55:15.381Z,20.95
2022-08-01T02:56:15.380Z,20.94
2022-08-01T02:57:15.379Z,20.95
2022-08-01T02:58:15.394Z,20.95
2022-08-01T02:59:15.365Z,20.92
2022-08-01T03:00:15.341Z,20.92
2022-08-01T03:01:15.394Z,20.92
2022-08-01T03:02:15.343Z,20.91
2022-08-01T03:03:15.302Z,20.91
2022-08-01T03:04:15.294Z,20.92
2022-08-01T03:05:15.286Z,20.91
2022-08-01T03:06:15.274Z,20.89
2022-08-01T03:07:15.255Z,20.89
2022-08-01T03:08:15.254Z,20.89
2022-08-01T03:09:16.614Z,20.88
2022-08-01T03:10:15.225Z,20.88
2022-08-01T03:11:15.215Z,20.87
2022-08-01T03:12:15.253Z,20.87
2022-08-01T03:13:15.220Z,20.85
2022-08-01T03:14:15.291Z,20.85
2022-08-01T03:15:15.157Z,20.85
2022-08-01T03:16:15.206Z,20.85
2022-08-01T03:17:15.147Z,20.85
2022-08-01T03:18:15.159Z,20.84
2022-08-01T03:19:15.137Z,20.82
2022-08-01T03:20:15.148Z,20.82
2022-08-01T03:21:15.098Z,20.82
2022-08-01T03:22:15.099Z,20.82
2022-08-01T03:23:15.090Z,20.82
2022-08-01T03:24:15.079Z,20.80
2022-08-01T03:25:15.060Z,20.82
2022-08-01T03:26:15.061Z,20.80
2022-08-01T03:27:15.030Z,20.80
2022-08-01T03:28:15.061Z,20.79
2022-08-01T03:29:15.011Z,20.79
2022-08-01T03:30:15.063Z,20.77
2022-08-01T03:31:14.992Z,20.79
2022-08-01T03:32:14.984Z,20.77
2022-08-01T03:33:15.006Z,20.77
2022-08-01T03:34:14.966Z,20.77
2022-08-01T03:35:14.945Z,20.76
2022-08-01T03:36:14.937Z,20.76
2022-08-01T03:37:15.060Z,20.76
2022-08-01T03:38:16.408Z,20.76
2022-08-01T03:39:14.906Z,20.76
2022-08-01T03:40:14.908Z,20.76
2022-08-01T03:41:14.877Z,20.76
2022-08-01T03:42:14.866Z,20.74
2022-08-01T03:43:14.928Z,20.74
2022-08-01T03:44:14.898Z,20.74
2022-08-01T03:45:14.827Z,20.74
2022-08-01T03:46:14.828Z,20.74
2022-08-01T03:47:14.817Z,20.76
2022-08-01T03:48:14.820Z,20.73
2022-08-01T03:49:14.819Z,20.73
2022-08-01T03:50:14.799Z,20.74
2022-08-01T03:51:14.779Z,20.74
2022-08-01T03:52:14.761Z,20.73
2022-08-01T03:53:14.780Z,20.74
2022-08-01T03:54:14.758Z,20.73
2022-08-01T03:55:14.730Z,20.73
2022-08-01T03:56:14.720Z,20.72
2022-08-01T03:57:34.871Z,20.73
2022-08-01T03:58:15.711Z,20.73
2022-08-01T03:59:14.703Z,20.73
2022-08-01T04:00:14.743Z,20.74
2022-08-01T04:01:15.514Z,20.73
2022-08-01T04:02:14.660Z,20.72
2022-08-01T04:03:14.642Z,20.73
2022-08-01T04:04:14.677Z,20.72
2022-08-01T04:05:14.623Z,20.73
2022-08-01T04:06:14.626Z,20.72
2022-08-01T04:07:14.594Z,20.74
2022-08-01T04:08:14.626Z,20.73
2022-08-01T04:09:14.566Z,20.73
2022-08-01T04:10:14.577Z,20.74
2022-08-01T04:11:14.550Z,20.72
2022-08-01T04:12:14.546Z,20.73
2022-08-01T04:13:14.547Z,20.72
2022-08-01T04:14:14.517Z,20.73
2022-08-01T04:15:14.499Z,20.72
2022-08-01T04:16:14.499Z,20.72
2022-08-01T04:17:14.488Z,20.72
2022-08-01T04:18:14.492Z,20.70
2022-08-01T04:19:14.485Z,20.70
2022-08-01T04:20:14.500Z,20.70
2022-08-01T04:21:14.439Z,20.70
2022-08-01T04:22:14.441Z,20.70
2022-08-01T04:23:14.434Z,20.70
2022-08-01T04:24:14.410Z,20.70
2022-08-01T04:25:14.391Z,20.70
2022-08-01T04:26:14.444Z,20.70
2022-08-01T04:27:14.372Z,20.70
2022-08-01T04:28:14.395Z,20.70
2022-08-01T04:29:14.343Z,20.70
2022-08-01T04:30:17.897Z,20.69
2022-08-01T04:31:15.345Z,20.69
2022-08-01T04:32:14.395Z,20.70
2022-08-01T04:33:14.313Z,20.70
2022-08-01T04:34:14.296Z,20.70
2022-08-01T04:35:22.519Z,20.70
2022-08-01T04:36:15.303Z,20.72
2022-08-01T04:37:14.255Z,20.72
2022-08-01T04:38:14.348Z,20.72
2022-08-01T04:39:14.236Z,20.70
2022-08-01T04:40:14.304Z,20.73
2022-08-01T04:41:14.237Z,20.73
2022-08-01T04:42:14.266Z,20.73
2022-08-01T04:43:15.062Z,20.73
2022-08-01T04:44:14.209Z,20.73
2022-08-01T04:45:14.173Z,20.74
2022-08-01T04:46:14.203Z,20.76
2022-08-01T04:47:14.158Z,20.76
2022-08-01T04:48:14.178Z,20.77
2022-08-01T04:49:14.183Z,20.77
2022-08-01T04:50:14.133Z,20.79
2022-08-01T04:51:14.115Z,20.79
2022-08-01T04:52:18.808Z,20.82
2022-08-01T04:53:15.097Z,20.82
2022-08-01T04:54:14.071Z,20.82
2022-08-01T04:55:14.062Z,20.87
2022-08-01T04:56:14.293Z,20.87
2022-08-01T04:57:14.033Z,20.87
2022-08-01T04:58:17.702Z,20.88
2022-08-01T04:59:17.642Z,20.89
2022-08-01T05:00:15.022Z,20.91
2022-08-01T05:01:14.034Z,20.94
2022-08-01T05:02:13.991Z,20.95
2022-08-01T05:03:13.975Z,20.95
2022-08-01T05:04:13.967Z,20.98
2022-08-01T05:05:13.963Z,20.98
2022-08-01T05:06:13.985Z,20.99
2022-08-01T05:07:13.937Z,21.01
2022-08-01T05:08:14.003Z,21.04
2022-08-01T05:09:13.935Z,21.04
2022-08-01T05:10:13.916Z,21.07
2022-08-01T05:11:13.876Z,21.09
2022-08-01T05:12:13.901Z,21.10
2022-08-01T05:13:13.877Z,21.13
2022-08-01T05:14:13.886Z,21.14
2022-08-01T05:15:15.696Z,21.16
2022-08-01T05:16:13.834Z,21.16
2022-08-01T05:17:13.818Z,21.21
2022-08-01T05:18:13.809Z,21.17
2022-08-01T05:19:13.820Z,21.21
2022-08-01T05:20:13.780Z,21.22
2022-08-01T05:21:13.770Z,21.24
2022-08-01T05:22:13.791Z,21.25
2022-08-01T05:23:14.600Z,21.25
2022-08-01T05:24:14.761Z,21.25
2022-08-01T05:25:13.733Z,21.25
2022-08-01T05:26:14.993Z,21.27
2022-08-01T05:27:13.718Z,21.27
2022-08-01T05:28:13.694Z,21.27
2022-08-01T05:29:14.693Z,21.27
2022-08-01T05:30:13.671Z,21.27
2022-08-01T05:31:13.656Z,21.28
2022-08-01T05:32:13.737Z,21.27
2022-08-01T05:33:13.634Z,21.28
2022-08-01T05:34:15.092Z,21.28
2022-08-01T05:35:13.617Z,21.27
2022-08-01T05:36:13.614Z,21.28
2022-08-01T05:37:13.605Z,21.27
2022-08-01T05:38:15.021Z,21.27
2022-08-01T05:39:13.588Z,21.27
2022-08-01T05:40:13.577Z,21.28
2022-08-01T05:41:13.548Z,21.25
2022-08-01T05:42:13.614Z,21.25
2022-08-01T05:43:13.540Z,21.27
2022-08-01T05:44:13.539Z,21.27
2022-08-01T05:45:13.522Z,21.28
2022-08-01T05:46:13.541Z,21.27
2022-08-01T05:47:13.489Z,21.27
2022-08-01T05:48:13.569Z,21.27
2022-08-01T05:49:13.528Z,21.27
2022-08-01T05:50:13.462Z,21.28
2022-08-01T05:51:13.441Z,21.28
2022-08-01T05:52:13.523Z,21.28
2022-08-01T05:53:13.422Z,21.27
2022-08-01T05:54:13.439Z,21.28
2022-08-01T05:55:13.402Z,21.28
2022-08-01T05:56:13.402Z,21.29
2022-08-01T05:57:13.381Z,21.29
2022-08-01T05:58:13.375Z,21.31
2022-08-01T05:59:13.374Z,21.31
2022-08-01T06:00:13.354Z,21.32
2022-08-01T06:01:13.355Z,21.32
2022-08-01T06:02:13.380Z,21.34
2022-08-01T06:03:13.326Z,21.35
2022-08-01T06:04:13.335Z,21.35
2022-08-01T06:05:13.789Z,21.35
2022-08-01T06:06:13.376Z,21.35
2022-08-01T06:07:13.277Z,21.37
2022-08-01T06:08:13.279Z,21.37
2022-08-01T06:09:13.289Z,21.35
2022-08-01T06:10:13.378Z,21.35
2022-08-01T06:11:13.405Z,21.37
2022-08-01T06:12:13.269Z,21.37
2022-08-01T06:13:13.218Z,21.38
2022-08-01T06:14:13.249Z,21.37
2022-08-01T06:15:13.189Z,21.37
2022-08-01T06:16:13.209Z,21.37
2022-08-01T06:17:13.171Z,21.35
2022-08-01T06:18:13.287Z,21.35
2022-08-01T06:19:13.170Z,21.35
2022-08-01T06:20:13.193Z,21.35
2022-08-01T06:21:13.122Z,21.38
2022-08-01T06:22:13.123Z,21.38
2022-08-01T06:23:31.627Z,21.40
2022-08-01T06:24:14.104Z,21.42
2022-08-01T06:25:13.081Z,21.42
2022-08-01T06:26:13.124Z,21.46
2022-08-01T06:27:22.422Z,21.53
2022-08-01T06:28:14.075Z,21.72
2022-08-01T06:29:13.054Z,21.88
2022-08-01T06:30:13.064Z,21.99
2022-08-01T06:31:13.016Z,22.14
2022-08-01T06:32:13.055Z,22.24
2022-08-01T06:33:13.996Z,22.30
2022-08-01T06:34:13.006Z,22.27
2022-08-01T06:35:12.989Z,22.22
2022-08-01T06:36:13.016Z,22.17
2022-08-01T06:37:12.968Z,22.12
2022-08-01T06:38:12.949Z,22.12
2022-08-01T06:39:12.939Z,22.12
2022-08-01T06:40:16.908Z,22.12
2022-08-01T06:41:12.919Z,22.07
2022-08-01T06:42:12.941Z,22.05
2022-08-01T06:43:12.900Z,22.00
2022-08-01T06:44:12.911Z,21.94
2022-08-01T06:45:12.872Z,21.91
2022-08-01T06:46:12.922Z,21.91
2022-08-01T06:47:12.887Z,21.92
2022-08-01T06:48:12.831Z,21.96
2022-08-01T06:49:12.928Z,21.94
2022-08-01T06:50:12.830Z,21.98
2022-08-01T06:51:12.802Z,21.99
2022-08-01T06:52:12.873Z,21.98
2022-08-01T06:53:12.793Z,21.99
2022-08-01T06:54:12.792Z,22.02
2022-08-01T06:55:12.763Z,22.03
2022-08-01T06:56:12.786Z,22.05
2022-08-01T06:57:12.735Z,22.09
2022-08-01T06:58:12.727Z,22.17
2022-08-01T06:59:12.727Z,22.20
2022-08-01T07:00:12.792Z,22.21
2022-08-01T07:01:12.787Z,22.24
2022-08-01T07:02:12.688Z,22.25
2022-08-01T07:03:12.676Z,22.24
2022-08-01T07:04:12.677Z,22.20
2022-08-01T07:05:12.660Z,22.25
2022-08-01T07:06:12.639Z,22.27
2022-08-01T07:07:12.629Z,22.27
2022-08-01T07:08:12.629Z,22.27
2022-08-01T07:09:14.615Z,22.27
2022-08-01T07:10:12.614Z,22.28
2022-08-01T07:11:12.601Z,22.31
2022-08-01T07:12:12.571Z,22.33
2022-08-01T07:13:12.564Z,22.36
2022-08-01T07:14:12.611Z,22.36
2022-08-01T07:15:12.545Z,22.39
2022-08-01T07:16:12.582Z,22.40
2022-08-01T07:17:12.524Z,22.51
2022-08-01T07:18:12.506Z,22.64
2022-08-01T07:19:12.523Z,22.80
2022-08-01T07:20:13.813Z,22.92
2022-08-01T07:21:38.244Z,23.09
2022-08-01T07:22:13.495Z,23.12
2022-08-01T07:23:13.455Z,23.07
2022-08-01T07:24:13.627Z,22.98
2022-08-01T07:25:12.447Z,22.94
2022-08-01T07:26:12.417Z,22.91
2022-08-01T07:27:23.768Z,22.86
2022-08-01T07:28:13.410Z,22.80
2022-08-01T07:29:12.409Z,22.77
2022-08-01T07:30:12.424Z,22.76
2022-08-01T07:31:12.369Z,22.85
2022-08-01T07:32:12.360Z,22.95
2022-08-01T07:33:12.350Z,23.05
2022-08-01T07:34:12.340Z,23.09
2022-08-01T07:35:12.335Z,23.12
2022-08-01T07:36:12.363Z,23.16
2022-08-01T07:37:12.301Z,23.16
2022-08-01T07:38:12.889Z,23.10
2022-08-01T07:39:12.293Z,23.05
2022-08-01T07:40:12.283Z,22.94
2022-08-01T07:41:12.263Z,22.83
2022-08-01T07:42:12.619Z,22.77
2022-08-01T07:43:12.245Z,22.95
2022-08-01T07:44:12.285Z,23.27
2022-08-01T07:45:12.218Z,23.47
2022-08-01T07:46:12.215Z,23.57
2022-08-01T07:47:12.196Z,23.57
2022-08-01T07:48:12.198Z,23.55
2022-08-01T07:49:12.262Z,23.53
2022-08-01T07:50:12.197Z,23.51
2022-08-01T07:51:12.148Z,23.50
2022-08-01T07:52:12.147Z,23.36
2022-08-01T07:53:12.128Z,23.23
2022-08-01T07:54:12.131Z,23.10
2022-08-01T07:55:12.120Z,22.98
2022-08-01T07:56:12.113Z,22.92
2022-08-01T07:57:12.111Z,22.86
2022-08-01T07:58:12.111Z,22.79
2022-08-01T07:59:12.111Z,22.73
2022-08-01T08:00:12.062Z,22.73
2022-08-01T08:01:12.054Z,22.76
2022-08-01T08:02:12.350Z,22.82
2022-08-01T08:03:12.036Z,22.91
2022-08-01T08:04:12.073Z,22.97
2022-08-01T08:05:12.015Z,23.01
2022-08-01T08:06:11.999Z,23.10
2022-08-01T08:07:11.985Z,23.13
2022-08-01T08:08:12.097Z,23.17
2022-08-01T08:09:11.975Z,23.23
2022-08-01T08:10:12.032Z,23.27
2022-08-01T08:11:11.945Z,23.31
2022-08-01T08:12:11.936Z,23.31
2022-08-01T08:13:11.937Z,23.32
2022-08-01T08:14:11.977Z,23.31
2022-08-01T08:15:11.909Z,23.32
2022-08-01T08:16:11.937Z,23.32
2022-08-01T08:17:11.882Z,23.38
2022-08-01T08:18:11.873Z,23.42
2022-08-01T08:19:11.861Z,23.39
2022-08-01T08:20:11.860Z,23.40
2022-08-01T08:21:11.830Z,23.47
2022-08-01T08:22:11.864Z,23.61
2022-08-01T08:23:11.819Z,23.78
2022-08-01T08:24:12.866Z,23.87
2022-08-01T08:25:11.901Z,23.98
2022-08-01T08:26:11.828Z,24.10
2022-08-01T08:27:11.767Z,24.25
2022-08-01T08:28:11.762Z,24.34
2022-08-01T08:29:11.763Z,24.40
2022-08-01T08:30:11.822Z,24.32
2022-08-01T08:31:24.984Z,24.21
2022-08-01T08:32:12.716Z,24.06
2022-08-01T08:33:13.809Z,23.90
2022-08-01T08:34:11.726Z,23.70
2022-08-01T08:35:12.373Z,23.51
2022-08-01T08:36:11.697Z,23.39
2022-08-01T08:37:11.658Z,23.32
2022-08-01T08:38:11.685Z,23.25
2022-08-01T08:39:11.639Z,23.25
2022-08-01T08:40:11.669Z,23.28
2022-08-01T08:41:11.621Z,23.42
2022-08-01T08:42:11.673Z,23.70
2022-08-01T08:43:11.602Z,24.02
2022-08-01T08:44:11.636Z,24.16
2022-08-01T08:45:12.151Z,24.12
2022-08-01T08:46:11.572Z,23.97
2022-08-01T08:47:13.795Z,23.80
2022-08-01T08:48:12.683Z,23.68
2022-08-01T08:49:11.561Z,23.55
2022-08-01T08:50:11.630Z,23.51
2022-08-01T08:51:11.506Z,23.47
2022-08-01T08:52:11.505Z,23.43
2022-08-01T08:53:14.700Z,23.42
2022-08-01T08:54:12.487Z,23.42
2022-08-01T08:55:11.561Z,23.40
2022-08-01T08:56:11.489Z,23.47
2022-08-01T08:57:11.448Z,23.57
2022-08-01T08:58:11.446Z,23.69
2022-08-01T08:59:11.431Z,23.76
2022-08-01T09:00:11.468Z,23.87
2022-08-01T09:01:11.399Z,24.03
2022-08-01T09:02:11.637Z,24.24
2022-08-01T09:03:11.430Z,24.39
2022-08-01T09:04:11.405Z,24.58
2022-08-01T09:05:14.022Z,24.78
2022-08-01T09:06:12.369Z,24.81
2022-08-01T09:07:12.113Z,24.80
2022-08-01T09:08:11.351Z,24.78
2022-08-01T09:09:11.325Z,24.76
2022-08-01T09:10:11.324Z,24.71
2022-08-01T09:11:13.927Z,24.76
2022-08-01T09:12:12.575Z,24.76
2022-08-01T09:13:11.277Z,24.68
2022-08-01T09:14:11.323Z,24.68
2022-08-01T09:15:11.254Z,24.62
2022-08-01T09:16:11.248Z,24.46
2022-08-01T09:17:11.258Z,24.40
2022-08-01T09:18:11.227Z,24.55
2022-08-01T09:19:16.331Z,24.81
2022-08-01T09:20:12.209Z,25.02
2022-08-01T09:21:11.201Z,25.14
2022-08-01T09:22:11.201Z,25.05
2022-08-01T09:23:11.171Z,24.93
2022-08-01T09:24:11.270Z,24.95
2022-08-01T09:25:11.150Z,25.05
2022-08-01T09:26:11.201Z,25.10
2022-08-01T09:27:11.133Z,25.24
2022-08-01T09:28:11.158Z,25.32
2022-08-01T09:29:11.109Z,25.42
2022-08-01T09:30:11.388Z,25.61
2022-08-01T09:31:11.092Z,25.91
2022-08-01T09:32:16.157Z,26.17
2022-08-01T09:33:18.053Z,26.17
2022-08-01T09:34:12.062Z,26.21
2022-08-01T09:35:11.114Z,26.10
2022-08-01T09:36:13.247Z,26.09
2022-08-01T09:37:11.237Z,26.15
2022-08-01T09:38:11.018Z,25.91
2022-08-01T09:39:11.001Z,25.57
2022-08-01T09:40:11.027Z,25.25
2022-08-01T09:41:10.990Z,25.30
2022-08-01T09:42:10.989Z,25.52
2022-08-01T09:43:10.968Z,25.40
2022-08-01T09:44:10.951Z,25.30
2022-08-01T09:45:10.961Z,25.24
2022-08-01T09:46:12.684Z,25.20
2022-08-01T09:47:10.934Z,25.14
2022-08-01T09:48:10.993Z,25.10
2022-08-01T09:49:10.998Z,25.02
2022-08-01T09:50:11.580Z,24.88
2022-08-01T09:51:10.885Z,24.77
2022-08-01T09:52:10.893Z,24.83
2022-08-01T09:53:10.870Z,25.13
2022-08-01T09:54:11.915Z,25.52
2022-08-01T09:55:10.870Z,26.05
2022-08-01T09:56:10.885Z,26.33
2022-08-01T09:57:10.817Z,26.72
2022-08-01T09:58:10.815Z,27.12
2022-08-01T09:59:10.807Z,27.74
2022-08-01T10:00:19.466Z,28.18
2022-08-01T10:01:11.794Z,28.51
2022-08-01T10:02:10.799Z,28.43
2022-08-01T10:03:10.763Z,28.12
2022-08-01T10:04:10.952Z,27.59
2022-08-01T10:05:10.762Z,27.13
2022-08-01T10:06:11.732Z,26.55
2022-08-01T10:07:10.915Z,26.12
2022-08-01T10:08:10.730Z,26.12
2022-08-01T10:09:10.704Z,26.33
2022-08-01T10:10:10.704Z,26.10
2022-08-01T10:11:12.206Z,25.82
2022-08-01T10:12:15.125Z,25.58
2022-08-01T10:13:11.667Z,25.35
2022-08-01T10:14:10.686Z,25.13
2022-08-01T10:15:10.656Z,24.90
2022-08-01T10:16:10.706Z,24.73
2022-08-01T10:17:10.753Z,24.53
2022-08-01T10:18:16.577Z,24.40
2022-08-01T10:19:15.550Z,24.30
2022-08-01T10:20:21.550Z,24.27
2022-08-01T10:21:11.582Z,24.25
2022-08-01T10:22:10.648Z,24.24
2022-08-01T10:23:10.568Z,24.21
2022-08-01T10:24:10.659Z,24.16
2022-08-01T10:25:10.560Z,24.16
2022-08-01T10:26:10.571Z,24.22
2022-08-01T10:27:12.494Z,24.31
2022-08-01T10:28:10.696Z,24.37
2022-08-01T10:29:45.046Z,24.34
2022-08-01T10:30:19.663Z,24.34
2022-08-01T10:31:12.661Z,24.35
2022-08-01T10:32:10.627Z,24.50
2022-08-01T10:33:10.455Z,24.96
2022-08-01T10:34:10.466Z,25.40
2022-08-01T10:35:15.138Z,25.58
2022-08-01T10:36:11.465Z,25.65
2022-08-01T10:37:10.418Z,25.58
2022-08-01T10:38:10.642Z,25.55
2022-08-01T10:39:10.388Z,25.45
2022-08-01T10:40:29.359Z,25.33
2022-08-01T10:41:11.387Z,25.40
2022-08-01T10:42:10.946Z,25.60
2022-08-01T10:43:11.375Z,25.91
2022-08-01T10:44:10.622Z,26.32
2022-08-01T10:45:10.332Z,26.73
2022-08-01T10:46:10.322Z,27.21
2022-08-01T10:47:10.521Z,27.62
2022-08-01T10:48:10.633Z,27.59
2022-08-01T10:49:10.356Z,27.28
2022-08-01T10:50:10.354Z,26.84
2022-08-01T10:51:17.706Z,26.66
2022-08-01T10:52:11.245Z,26.80
2022-08-01T10:53:15.311Z,26.67
2022-08-01T10:54:11.236Z,26.77
2022-08-01T10:55:10.239Z,26.95
2022-08-01T10:56:10.317Z,27.07
2022-08-01T10:57:10.208Z,27.07
2022-08-01T10:58:10.296Z,26.85
2022-08-01T10:59:11.195Z,26.55
2022-08-01T11:00:10.187Z,26.29
2022-08-01T11:01:10.239Z,25.99
2022-08-01T11:02:10.194Z,25.79
2022-08-01T11:03:10.149Z,25.64
2022-08-01T11:04:15.525Z,25.57
2022-08-01T11:05:11.153Z,25.52
2022-08-01T11:06:10.112Z,25.50
2022-08-01T11:07:10.558Z,25.46
2022-08-01T11:08:10.181Z,25.52
2022-08-01T11:09:10.083Z,25.60
2022-08-01T11:10:14.711Z,25.69
2022-08-01T11:11:11.067Z,25.67
2022-08-01T11:12:13.345Z,25.75
2022-08-01T11:13:11.048Z,25.99
2022-08-01T11:14:10.033Z,26.39
2022-08-01T11:15:10.052Z,26.55
2022-08-01T11:16:16.033Z,26.52
2022-08-01T11:17:11.015Z,26.55
2022-08-01T11:18:09.988Z,26.67
2022-08-01T11:19:10.024Z,26.66
2022-08-01T11:20:10.042Z,26.70
2022-08-01T11:21:57.851Z,26.70
2022-08-01T11:22:10.978Z,26.51
2022-08-01T11:23:09.960Z,26.45
2022-08-01T11:24:09.951Z,26.85
2022-08-01T11:25:09.941Z,27.63
2022-08-01T11:26:10.719Z,28.03
2022-08-01T11:27:09.902Z,27.88
2022-08-01T11:28:13.512Z,27.50
2022-08-01T11:29:19.937Z,27.12
2022-08-01T11:30:12.989Z,26.81
2022-08-01T11:31:10.966Z,26.66
2022-08-01T11:32:09.893Z,26.50
2022-08-01T11:33:10.379Z,26.28
2022-08-01T11:34:09.877Z,26.10
2022-08-01T11:35:09.844Z,25.95
2022-08-01T11:36:09.858Z,25.87
2022-08-01T11:37:10.219Z,25.75
2022-08-01T11:38:09.960Z,25.60
2022-08-01T11:39:13.133Z,25.42
2022-08-01T11:40:09.905Z,25.25
2022-08-01T11:41:09.770Z,25.08
2022-08-01T11:42:09.822Z,24.91
2022-08-01T11:43:09.755Z,24.90
2022-08-01T11:44:09.818Z,25.00
2022-08-01T11:45:09.754Z,25.10
2022-08-01T11:46:09.752Z,25.14
2022-08-01T11:47:10.722Z,25.21
2022-08-01T11:48:09.703Z,25.24
2022-08-01T11:49:09.725Z,25.30
2022-08-01T11:50:09.695Z,25.36
2022-08-01T11:51:09.666Z,25.52
2022-08-01T11:52:09.707Z,25.60
2022-08-01T11:53:11.311Z,25.61
2022-08-01T11:54:09.626Z,25.69
2022-08-01T11:55:10.052Z,25.92
2022-08-01T11:56:09.636Z,26.05
2022-08-01T11:57:10.464Z,26.02
2022-08-01T11:58:22.021Z,25.91
2022-08-01T11:59:15.169Z,26.01
2022-08-01T12:00:09.604Z,26.06
2022-08-01T12:01:09.560Z,25.98
2022-08-01T12:02:09.693Z,25.92
2022-08-01T12:03:09.538Z,26.07
2022-08-01T12:04:09.531Z,26.17
2022-08-01T12:05:11.929Z,26.07
2022-08-01T12:06:09.503Z,25.92
2022-08-01T12:07:09.540Z,25.85
2022-08-01T12:08:09.502Z,25.82
2022-08-01T12:09:12.121Z,25.80
2022-08-01T12:10:09.495Z,25.72
2022-08-01T12:11:09.454Z,25.65
2022-08-01T12:12:09.486Z,25.58
2022-08-01T12:13:09.436Z,25.58
2022-08-01T12:14:09.430Z,25.55
2022-08-01T12:15:10.114Z,25.54
2022-08-01T12:16:09.449Z,25.51
2022-08-01T12:17:09.519Z,25.52
2022-08-01T12:18:09.447Z,25.57
2022-08-01T12:19:09.368Z,25.70
2022-08-01T12:20:09.395Z,25.77
2022-08-01T12:21:09.340Z,25.95
2022-08-01T12:22:09.450Z,26.20
2022-08-01T12:23:09.375Z,26.36
2022-08-01T12:24:09.411Z,26.55
2022-08-01T12:25:09.311Z,26.60
2022-08-01T12:26:09.300Z,26.60
2022-08-01T12:27:10.284Z,26.55
2022-08-01T12:28:09.336Z,26.47
2022-08-01T12:29:09.273Z,26.30
2022-08-01T12:30:09.374Z,26.15
2022-08-01T12:31:09.246Z,26.25
2022-08-01T12:32:09.246Z,26.30
2022-08-01T12:33:09.222Z,26.35
2022-08-01T12:34:09.281Z,26.47
2022-08-01T12:35:09.217Z,26.58
2022-08-01T12:36:09.227Z,26.58
2022-08-01T12:37:10.637Z,26.50
2022-08-01T12:38:09.198Z,26.37
2022-08-01T12:39:09.202Z,26.29
2022-08-01T12:40:09.283Z,26.29
2022-08-01T12:41:09.148Z,26.45
2022-08-01T12:42:09.220Z,26.60
2022-08-01T12:43:09.121Z,26.70
2022-08-01T12:44:10.109Z,26.77
2022-08-01T12:45:09.122Z,26.69
2022-08-01T12:46:09.087Z,26.60
2022-08-01T12:47:09.330Z,26.58
2022-08-01T12:48:09.091Z,26.54
2022-08-01T12:49:09.111Z,26.47
2022-08-01T12:50:09.114Z,26.40
2022-08-01T12:51:09.034Z,26.37
2022-08-01T12:52:12.956Z,26.40